Time;durP1;ratioP1;P1;durP2;ratioP2;P2;SDS_P1;SDS_P2;PMS_P1;PMS_P2;Temp;Humidity;BMP_temperature;BMP_pressure;BME280_temperature;BME280_humidity;BME280_pressure;Samples;Min_cycle;Max_cycle;Signal;HPM_P1;HPM_P2
2023/07/15 00:02:04;;;;;;;8.30;2.55;;;;;;;23.24;42.66;100293.69;5061747;28;20033;-76
2023/07/15 00:04:29;;;;;;;4.60;2.60;;;;;;;23.17;42.40;100294.25;5080438;28;20070;-76
2023/07/15 00:06:55;;;;;;;3.90;2.50;;;;;;;23.20;42.64;100293.56;5057653;28;20487;-76
2023/07/15 00:09:26;;;;;;;4.45;2.42;;;;;;;23.19;42.25;100294.75;5082226;28;20069;-76
2023/07/15 00:11:52;;;;;;;4.50;2.50;;;;;;;23.18;42.52;100290.25;5076931;28;20035;-77
2023/07/15 00:14:23;;;;;;;4.45;2.70;;;;;;;23.13;42.43;100293.31;5080917;28;20293;-77
2023/07/15 00:16:52;;;;;;;6.88;2.65;;;;;;;23.13;42.08;100290.50;5078658;28;20048;-77
2023/07/15 00:19:19;;;;;;;7.30;2.67;;;;;;;23.10;42.57;100290.34;5079652;28;20041;-77
2023/07/15 00:21:45;;;;;;;4.18;2.40;;;;;;;23.08;42.57;100289.91;5087986;28;20042;-76
2023/07/15 00:24:11;;;;;;;5.05;2.60;;;;;;;23.14;42.36;100286.47;5088630;28;20032;-76
2023/07/15 00:26:37;;;;;;;5.38;2.50;;;;;;;23.08;42.15;100284.25;5075590;28;20098;-77
2023/07/15 00:29:04;;;;;;;5.60;2.40;;;;;;;23.05;42.57;100290.59;5078114;28;20062;-76
2023/07/15 00:31:31;;;;;;;4.80;2.30;;;;;;;23.03;42.39;100296.63;5076626;28;20050;-76
2023/07/15 00:33:57;;;;;;;6.75;2.75;;;;;;;23.04;42.79;100292.59;5090382;28;20028;-77
2023/07/15 00:36:23;;;;;;;4.88;2.50;;;;;;;23.00;42.28;100292.47;5074113;28;20794;-76
2023/07/15 00:38:49;;;;;;;5.13;2.63;;;;;;;23.00;42.42;100288.81;5075745;28;20383;-76
2023/07/15 00:41:29;;;;;;;6.68;2.55;;;;;;;23.01;42.83;100291.28;5086841;28;20020;-76
2023/07/15 00:46:20;;;;;;;7.20;2.77;;;;;;;22.97;42.30;100310.16;5084497;28;20024;-76
2023/07/15 00:49:13;;;;;;;3.45;2.25;;;;;;;22.96;42.67;100296.38;5063430;28;20318;-76
2023/07/15 00:51:43;;;;;;;5.78;2.38;;;;;;;22.98;42.76;100305.31;5053958;28;20080;-76
2023/07/15 00:54:09;;;;;;;5.45;2.60;;;;;;;22.96;42.65;100300.00;5072881;28;20028;-76
2023/07/15 00:56:37;;;;;;;5.72;2.30;;;;;;;22.93;42.68;100297.06;5072837;28;20016;-77
2023/07/15 00:59:03;;;;;;;4.82;2.60;;;;;;;22.92;42.65;100304.72;5068634;28;20044;-76
2023/07/15 01:01:29;;;;;;;4.75;2.40;;;;;;;22.93;42.68;100308.38;5068676;28;20036;-76
2023/07/15 01:03:56;;;;;;;6.70;2.58;;;;;;;22.94;42.99;100302.34;5064158;28;20036;-76
2023/07/15 01:06:22;;;;;;;3.72;2.38;;;;;;;22.90;42.85;100298.53;5060377;28;20442;-76
2023/07/15 01:08:47;;;;;;;4.32;2.50;;;;;;;22.89;43.08;100290.41;5053455;28;20033;-76
2023/07/15 01:11:12;;;;;;;4.90;2.15;;;;;;;22.87;43.00;100304.06;5052544;28;20043;-76
2023/07/15 01:13:38;;;;;;;6.72;2.67;;;;;;;22.85;42.70;100310.09;5052662;28;20036;-76
2023/07/15 01:16:04;;;;;;;4.68;2.47;;;;;;;22.83;42.57;100308.78;5051847;28;20136;-76
2023/07/15 01:18:29;;;;;;;5.00;2.35;;;;;;;22.84;42.82;100311.28;5081462;28;20039;-77
2023/07/15 01:20:58;;;;;;;3.92;2.30;;;;;;;22.84;43.13;100308.44;5092467;28;20016;-76
2023/07/15 01:23:24;;;;;;;3.00;2.22;;;;;;;22.84;42.77;100307.63;5085712;28;20058;-76
2023/07/15 01:25:49;;;;;;;7.18;2.75;;;;;;;22.75;42.98;100302.88;5072034;28;20025;-76
2023/07/15 01:28:14;;;;;;;4.75;2.33;;;;;;;22.72;43.06;100306.41;5072114;28;20028;-76
2023/07/15 01:30:40;;;;;;;4.75;2.47;;;;;;;22.71;43.27;100307.56;5073112;28;20052;-76
2023/07/15 01:33:05;;;;;;;3.13;2.28;;;;;;;22.78;43.30;100309.81;5061815;28;20537;-76
2023/07/15 01:35:30;;;;;;;3.92;2.63;;;;;;;22.71;43.08;100303.91;5053389;28;20033;-77
2023/07/15 01:37:56;;;;;;;5.50;2.28;;;;;;;22.71;43.18;100298.25;5052636;28;20025;-76
2023/07/15 01:40:21;;;;;;;2.97;2.33;;;;;;;22.67;43.11;100312.25;5055651;28;20033;-76
2023/07/15 01:42:46;;;;;;;3.25;2.20;;;;;;;22.67;42.98;100305.78;5071268;28;20013;-76
2023/07/15 01:45:12;;;;;;;5.78;2.53;;;;;;;22.61;43.29;100310.84;5073949;28;20081;-77
2023/07/15 01:47:37;;;;;;;3.88;2.40;;;;;;;22.61;43.37;100327.81;5089240;28;20080;-77
2023/07/15 01:50:05;;;;;;;6.05;2.40;;;;;;;22.56;43.17;100316.72;5064206;28;20492;-76
2023/07/15 01:52:31;;;;;;;5.13;2.45;;;;;;;22.58;43.72;100308.69;5052883;28;20032;-76
2023/07/15 01:54:56;;;;;;;4.32;2.20;;;;;;;22.61;43.32;100315.66;5067172;28;20031;-76
2023/07/15 01:57:25;;;;;;;3.90;2.00;;;;;;;22.60;43.74;100320.50;5071913;28;20036;-77
2023/07/15 01:59:57;;;;;;;5.85;2.38;;;;;;;22.59;43.65;100329.31;5071129;28;20035;-76
2023/07/15 02:02:22;;;;;;;3.63;2.30;;;;;;;22.61;43.68;100332.63;5066110;28;20040;-76
2023/07/15 02:04:48;;;;;;;7.88;2.50;;;;;;;22.55;43.77;100334.84;5075114;28;20036;-76
2023/07/15 02:07:13;;;;;;;3.47;2.10;;;;;;;22.52;43.89;100341.22;5059031;28;20036;-76
2023/07/15 02:09:38;;;;;;;4.65;2.17;;;;;;;22.55;44.17;100329.19;5050898;28;20033;-76
2023/07/15 02:12:04;;;;;;;3.60;2.40;;;;;;;22.57;44.15;100312.72;5058717;28;20704;-76
2023/07/15 02:14:29;;;;;;;6.00;2.60;;;;;;;22.49;44.09;100324.94;5071964;28;20032;-76
2023/07/15 02:16:55;;;;;;;5.30;2.28;;;;;;;22.48;44.03;100329.75;5070268;28;20028;-76
2023/07/15 02:19:20;;;;;;;3.92;2.30;;;;;;;22.45;44.27;100338.09;5071296;28;20020;-76
2023/07/15 02:21:45;;;;;;;2.80;2.10;;;;;;;22.52;44.63;100342.03;5084403;28;20068;-76
2023/07/15 02:24:11;;;;;;;3.45;2.30;;;;;;;22.43;44.54;100340.44;5061231;28;20032;-76
2023/07/15 02:26:36;;;;;;;3.15;2.28;;;;;;;22.51;44.74;100329.03;5050400;28;20029;-77
2023/07/15 02:29:03;;;;;;;5.28;2.28;;;;;;;22.47;44.64;100339.41;5051665;28;20112;-76
2023/07/15 02:31:28;;;;;;;5.68;2.53;;;;;;;22.47;44.66;100333.75;5050316;28;20025;-77
2023/07/15 02:33:53;;;;;;;3.70;2.60;;;;;;;22.39;44.63;100328.16;5065894;28;20031;-76
2023/07/15 02:36:19;;;;;;;3.97;2.35;;;;;;;22.43;44.50;100340.44;5053352;28;20116;-76
2023/07/15 02:38:44;;;;;;;4.25;2.15;;;;;;;22.39;44.97;100337.47;5076286;28;20107;-77
2023/07/15 02:41:10;;;;;;;4.28;2.40;;;;;;;22.42;44.80;100342.44;5068746;28;20082;-76
2023/07/15 02:43:35;;;;;;;4.40;2.20;;;;;;;22.42;45.31;100341.63;5071398;28;20021;-77
2023/07/15 02:46:00;;;;;;;5.72;2.20;;;;;;;22.42;45.51;100339.63;5057903;28;20032;-76
2023/07/15 02:48:26;;;;;;;3.70;2.38;;;;;;;22.35;45.60;100342.16;5071718;28;20127;-76
2023/07/15 02:50:55;;;;;;;6.22;2.13;;;;;;;22.36;45.91;100326.88;5070638;28;20028;-76
2023/07/15 02:53:21;;;;;;;6.18;2.03;;;;;;;22.36;46.08;100326.88;5081677;28;20046;-76
2023/07/15 02:55:46;;;;;;;6.15;2.33;;;;;;;22.37;46.17;100324.88;5077702;28;20062;-77
2023/07/15 02:58:14;;;;;;;4.38;2.30;;;;;;;22.26;46.63;100322.44;5073189;28;20583;-76
2023/07/15 03:00:41;;;;;;;5.00;2.55;;;;;;;22.26;46.40;100327.28;5080621;28;20028;-76
2023/07/15 03:03:07;;;;;;;4.95;2.30;;;;;;;22.24;46.57;100333.28;5056314;28;20427;-76
2023/07/15 03:05:33;;;;;;;4.47;2.30;;;;;;;22.26;46.69;100328.09;5065820;28;20032;-76
2023/07/15 03:07:58;;;;;;;2.85;2.30;;;;;;;22.24;46.60;100330.47;5070806;28;20491;-76
2023/07/15 03:10:24;;;;;;;6.50;2.20;;;;;;;22.21;47.09;100333.97;5054242;28;20028;-77
2023/07/15 03:12:49;;;;;;;5.80;2.55;;;;;;;22.14;47.32;100327.22;5069362;28;20779;-76
2023/07/15 03:15:15;;;;;;;3.08;2.25;;;;;;;22.14;47.33;100330.84;5059387;28;20041;-76
2023/07/15 03:17:41;;;;;;;4.38;2.65;;;;;;;22.13;47.21;100329.22;5050937;28;20350;-77
2023/07/15 03:20:30;;;;;;;3.22;2.67;;;;;;;22.08;47.42;100332.19;5057013;28;20029;-77
2023/07/15 03:22:56;;;;;;;3.13;2.40;;;;;;;22.04;47.61;100325.56;5070346;28;20384;-76
2023/07/15 03:25:22;;;;;;;5.15;2.15;;;;;;;22.06;47.66;100334.56;5070127;28;20073;-77
2023/07/15 03:27:48;;;;;;;4.40;2.00;;;;;;;21.98;47.87;100332.59;5073228;28;20047;-76
2023/07/15 03:30:13;;;;;;;5.60;2.58;;;;;;;22.01;47.80;100332.75;5090851;28;20383;-76
2023/07/15 03:32:40;;;;;;;2.95;2.30;;;;;;;21.99;48.18;100331.44;5080138;28;20023;-76
2023/07/15 03:35:08;;;;;;;5.45;2.28;;;;;;;21.94;48.25;100332.47;5068871;28;20097;-77
2023/07/15 03:37:34;;;;;;;3.80;2.47;;;;;;;21.90;48.37;100330.66;5053684;28;20033;-77
2023/07/15 03:40:00;;;;;;;9.32;2.92;;;;;;;21.88;48.33;100330.16;5051234;28;20460;-77
2023/07/15 03:42:27;;;;;;;5.47;2.70;;;;;;;21.76;48.64;100330.91;5050003;28;20039;-77
2023/07/15 03:44:52;;;;;;;3.88;2.25;;;;;;;21.85;48.68;100334.53;5077160;28;20373;-76
2023/07/15 03:47:18;;;;;;;5.03;2.67;;;;;;;21.84;48.74;100332.03;5072792;28;20029;-76
2023/07/15 03:49:44;;;;;;;4.85;2.90;;;;;;;21.82;48.76;100332.38;5049938;28;20025;-77
2023/07/15 03:52:10;;;;;;;5.38;3.00;;;;;;;21.78;49.09;100329.41;5050251;28;20036;-77
2023/07/15 03:54:35;;;;;;;10.68;3.20;;;;;;;21.71;49.49;100336.75;5068765;28;20027;-77
2023/07/15 03:57:01;;;;;;;3.95;2.50;;;;;;;21.77;49.41;100330.59;5070552;28;20031;-77
2023/07/15 03:59:26;;;;;;;3.40;2.47;;;;;;;21.75;49.52;100330.09;5069623;28;20056;-77
2023/07/15 04:01:51;;;;;;;3.65;2.72;;;;;;;21.74;49.24;100328.44;5056909;28;20033;-77
2023/07/15 04:04:17;;;;;;;6.28;2.67;;;;;;;21.79;48.99;100321.75;5050505;28;20045;-76
2023/07/15 04:06:43;;;;;;;6.82;2.70;;;;;;;21.69;49.43;100320.16;5049093;28;20515;-77
2023/07/15 04:09:11;;;;;;;4.85;2.50;;;;;;;21.71;49.35;100325.47;5052965;28;20752;-77
2023/07/15 04:11:37;;;;;;;3.53;2.60;;;;;;;21.69;49.31;100320.16;5068795;28;20120;-77
2023/07/15 04:14:02;;;;;;;5.65;2.70;;;;;;;21.64;48.76;100322.34;5066415;28;20451;-76
2023/07/15 04:16:28;;;;;;;7.53;2.67;;;;;;;21.66;49.11;100320.84;5049112;28;20068;-77
2023/07/15 04:18:53;;;;;;;7.20;3.25;;;;;;;21.54;48.56;100315.91;5050327;28;20108;-77
2023/07/15 04:21:19;;;;;;;11.60;3.53;;;;;;;21.56;49.00;100322.03;5052183;28;20035;-77
2023/07/15 04:23:44;;;;;;;8.57;3.50;;;;;;;21.60;49.23;100327.00;5053349;28;20510;-77
2023/07/15 04:26:11;;;;;;;9.88;3.47;;;;;;;21.56;49.42;100333.34;5055772;28;20064;-77
2023/07/15 04:28:37;;;;;;;6.15;2.90;;;;;;;21.64;49.24;100328.00;5071215;28;20095;-77
2023/07/15 04:31:02;;;;;;;7.57;3.38;;;;;;;21.52;48.95;100320.25;5079553;28;20465;-76
2023/07/15 04:33:27;;;;;;;6.40;3.08;;;;;;;21.47;48.84;100332.56;5053322;28;20029;-77
2023/07/15 04:35:53;;;;;;;6.90;2.90;;;;;;;21.48;48.91;100331.38;5054868;28;20032;-77
2023/07/15 04:38:20;;;;;;;3.83;2.63;;;;;;;21.44;48.72;100338.88;5072398;28;20035;-77
2023/07/15 04:40:46;;;;;;;5.70;2.55;;;;;;;21.44;49.24;100344.53;5073985;28;20055;-76
2023/07/15 04:43:11;;;;;;;6.80;2.85;;;;;;;21.58;49.60;100338.66;5077673;28;20052;-77
2023/07/15 04:45:37;;;;;;;8.40;2.80;;;;;;;21.54;48.78;100346.16;5076693;28;20047;-77
2023/07/15 04:48:03;;;;;;;4.43;2.70;;;;;;;21.49;49.66;100349.16;5064765;28;20177;-77
2023/07/15 04:50:28;;;;;;;5.55;2.80;;;;;;;21.45;49.24;100348.16;5053071;28;20094;-76
2023/07/15 04:52:54;;;;;;;5.35;2.70;;;;;;;21.47;49.76;100351.50;5063383;28;20028;-77
2023/07/15 04:55:19;;;;;;;6.88;2.60;;;;;;;21.48;49.46;100350.31;5071038;28;20047;-77
2023/07/15 04:57:44;;;;;;;5.90;2.47;;;;;;;21.55;49.53;100344.97;5072234;28;20028;-77
2023/07/15 05:00:10;;;;;;;5.22;2.30;;;;;;;21.56;49.85;100352.28;5070491;28;20032;-74
2023/07/15 05:02:37;;;;;;;5.90;2.60;;;;;;;21.62;49.86;100342.47;5054683;28;20368;-74
2023/07/15 05:05:04;;;;;;;6.45;2.92;;;;;;;21.63;49.40;100346.94;5066865;28;20136;-73
2023/07/15 05:07:29;;;;;;;5.55;3.05;;;;;;;21.61;49.22;100346.44;5060690;28;20081;-76
2023/07/15 05:09:55;;;;;;;4.38;2.63;;;;;;;21.68;49.61;100338.25;5072834;28;20024;-75
2023/07/15 05:12:20;;;;;;;5.90;2.53;;;;;;;21.68;49.80;100345.91;5071540;28;20051;-78
2023/07/15 05:14:45;;;;;;;12.00;2.83;;;;;;;21.64;49.49;100345.75;5071237;28;20380;-73
2023/07/15 05:17:11;;;;;;;5.80;2.60;;;;;;;21.68;49.21;100357.22;5075028;28;20059;-76
2023/07/15 05:19:36;;;;;;;5.90;2.70;;;;;;;21.70;49.43;100349.22;5085179;28;20081;-77
2023/07/15 05:22:02;;;;;;;3.95;2.15;;;;;;;21.82;49.49;100352.16;5057695;28;20037;-78
2023/07/15 05:24:28;;;;;;;5.07;2.53;;;;;;;21.84;49.45;100348.97;5052905;28;20128;-76
2023/07/15 05:26:55;;;;;;;8.85;2.53;;;;;;;21.82;49.80;100340.84;5052332;28;20021;-76
2023/07/15 05:29:21;;;;;;;4.07;2.53;;;;;;;21.79;49.64;100344.34;5052240;28;20028;-80
2023/07/15 05:31:47;;;;;;;4.65;2.28;;;;;;;21.90;49.57;100342.78;5069544;28;20374;-79
2023/07/15 05:34:12;;;;;;;3.75;2.40;;;;;;;21.95;49.60;100350.25;5058330;28;20043;-67
2023/07/15 05:36:37;;;;;;;5.63;2.50;;;;;;;22.04;49.28;100353.84;5057215;28;20068;-72
2023/07/15 05:39:03;;;;;;;6.72;2.55;;;;;;;22.03;48.79;100349.34;5052367;28;20455;-79
2023/07/15 05:41:28;;;;;;;6.72;2.50;;;;;;;22.08;48.68;100349.16;5053115;28;20120;-76
2023/07/15 05:43:53;;;;;;;5.07;2.65;;;;;;;22.19;49.05;100344.78;5053953;28;20495;-80
2023/07/15 05:46:19;;;;;;;3.83;2.33;;;;;;;22.20;48.91;100354.91;5054066;28;20037;-79
2023/07/15 05:48:44;;;;;;;3.33;2.42;;;;;;;22.22;48.70;100358.22;5056012;28;20028;-77
2023/07/15 05:51:10;;;;;;;4.40;2.38;;;;;;;22.28;48.80;100359.69;5065478;28;20119;-78
2023/07/15 05:53:35;;;;;;;4.55;2.58;;;;;;;22.26;48.99;100367.69;5061420;28;20066;-78
2023/07/15 05:56:01;;;;;;;4.97;2.25;;;;;;;22.20;48.46;100362.56;5070590;28;20020;-78
2023/07/15 05:58:26;;;;;;;4.57;2.50;;;;;;;22.22;48.36;100369.53;5054978;28;20459;-78
2023/07/15 06:00:52;;;;;;;4.30;2.13;;;;;;;22.31;48.74;100366.66;5052210;28;20504;-78
2023/07/15 06:03:18;;;;;;;6.10;2.50;;;;;;;22.36;48.56;100360.81;5051059;28;20029;-78
2023/07/15 06:05:44;;;;;;;5.97;2.60;;;;;;;22.39;48.98;100359.28;5054969;28;20033;-78
2023/07/15 06:08:09;;;;;;;5.93;2.47;;;;;;;22.47;48.62;100372.50;5078701;28;20043;-77
2023/07/15 06:10:35;;;;;;;5.90;2.30;;;;;;;22.52;49.13;100364.66;5074981;28;20024;-77
2023/07/15 06:13:01;;;;;;;7.65;2.50;;;;;;;22.62;48.99;100371.88;5086942;28;20048;-77
2023/07/15 06:15:26;;;;;;;4.97;2.03;;;;;;;22.69;49.60;100377.00;5090584;28;20050;-77
2023/07/15 06:17:52;;;;;;;3.17;1.90;;;;;;;22.72;49.17;100371.47;5092366;28;20562;-77
2023/07/15 06:20:20;;;;;;;6.40;2.05;;;;;;;22.72;50.09;100363.00;5091789;28;20066;-77
2023/07/15 06:22:46;;;;;;;4.65;2.25;;;;;;;22.83;48.94;100365.38;5088188;28;20054;-76
2023/07/15 06:25:12;;;;;;;5.05;2.20;;;;;;;22.78;51.55;100370.06;5091500;28;20429;-78
2023/07/15 06:27:38;;;;;;;4.38;1.80;;;;;;;22.81;51.49;100371.38;5072298;28;20033;-77
2023/07/15 06:30:04;;;;;;;3.10;2.10;;;;;;;22.83;51.62;100371.03;5070951;28;20029;-77
2023/07/15 06:32:30;;;;;;;4.70;2.47;;;;;;;22.86;49.90;100359.03;5071881;28;20483;-77
2023/07/15 06:34:55;;;;;;;4.90;2.15;;;;;;;22.85;50.91;100365.88;5071433;28;20017;-77
2023/07/15 06:37:21;;;;;;;3.15;2.03;;;;;;;22.85;50.38;100380.00;5070327;28;20103;-77
2023/07/15 06:39:47;;;;;;;3.33;2.00;;;;;;;22.86;50.96;100376.00;5092139;28;20048;-77
2023/07/15 06:42:12;;;;;;;4.50;1.92;;;;;;;23.00;50.69;100373.72;5091489;28;20035;-77
2023/07/15 06:44:37;;;;;;;3.88;2.10;;;;;;;23.03;50.99;100378.72;5084974;28;20024;-77
2023/07/15 06:47:03;;;;;;;3.97;1.95;;;;;;;23.01;52.66;100375.38;5071074;28;20128;-77
2023/07/15 06:49:28;;;;;;;3.85;2.20;;;;;;;22.98;52.03;100370.41;5071657;28;20033;-78
2023/07/15 06:51:53;;;;;;;4.82;1.77;;;;;;;23.00;52.08;100363.25;5070536;28;20067;-77
2023/07/15 06:54:19;;;;;;;5.20;1.90;;;;;;;23.05;52.22;100362.19;5088630;28;20553;-77
2023/07/15 06:56:44;;;;;;;4.43;1.92;;;;;;;23.14;50.77;100351.59;5091216;28;20028;-77
2023/07/15 06:59:09;;;;;;;3.20;1.83;;;;;;;23.22;52.54;100359.16;5089186;28;20024;-77
2023/07/15 07:01:35;;;;;;;4.53;1.95;;;;;;;23.34;52.97;100357.53;5086317;28;20466;-78
2023/07/15 07:04:00;;;;;;;3.63;1.77;;;;;;;23.45;52.44;100364.38;5055109;28;20033;-77
2023/07/15 07:06:27;;;;;;;2.65;1.88;;;;;;;23.47;52.54;100370.53;5050027;28;20028;-77
2023/07/15 07:08:54;;;;;;;4.15;1.75;;;;;;;23.53;52.38;100366.28;5056642;28;20067;-77
2023/07/15 07:11:19;;;;;;;4.10;1.80;;;;;;;23.61;51.39;100354.00;5085737;28;20085;-75
2023/07/15 07:13:45;;;;;;;2.63;1.70;;;;;;;23.63;51.26;100357.34;5090059;28;20024;-77
2023/07/15 07:16:10;;;;;;;7.53;2.08;;;;;;;23.64;51.38;100369.50;5091141;28;20052;-77
2023/07/15 07:18:35;;;;;;;3.63;1.90;;;;;;;23.69;51.60;100367.28;5090271;28;20429;-78
2023/07/15 07:21:01;;;;;;;2.80;1.80;;;;;;;23.74;51.33;100369.06;5067141;28;20391;-78
2023/07/15 07:23:27;;;;;;;4.35;1.70;;;;;;;23.77;51.06;100374.00;5071268;28;20112;-75
2023/07/15 07:25:52;;;;;;;2.38;1.70;;;;;;;23.83;50.52;100377.44;5073510;28;20051;-78
2023/07/15 07:28:25;;;;;;;4.18;1.80;;;;;;;23.92;50.53;100380.97;5086942;28;20039;-78
2023/07/15 07:30:51;;;;;;;6.25;1.80;;;;;;;24.02;50.43;100380.50;5090433;28;20020;-77
2023/07/15 07:33:16;;;;;;;6.43;1.73;;;;;;;24.12;50.10;100373.50;5090719;28;20399;-78
2023/07/15 07:35:46;;;;;;;2.97;1.52;;;;;;;24.20;49.80;100379.06;5091115;28;20456;-78
2023/07/15 07:38:12;;;;;;;5.10;1.83;;;;;;;24.24;50.25;100377.16;5091662;28;20016;-77
2023/07/15 07:40:38;;;;;;;2.05;1.67;;;;;;;24.24;50.57;100382.81;5084705;28;20033;-79
2023/07/15 07:43:05;;;;;;;4.07;1.65;;;;;;;24.17;50.95;100381.78;5064437;28;20043;-79
2023/07/15 07:45:30;;;;;;;6.88;2.05;;;;;;;24.15;50.90;100382.13;5064963;28;20024;-78
2023/07/15 07:47:55;;;;;;;4.43;1.65;;;;;;;24.08;51.68;100373.41;5067533;28;20077;-77
2023/07/15 07:50:21;;;;;;;2.70;1.50;;;;;;;24.03;52.03;100376.47;5061321;28;20033;-77
2023/07/15 07:52:47;;;;;;;2.58;1.77;;;;;;;24.03;52.02;100370.00;5069997;28;20039;-77
2023/07/15 07:55:12;;;;;;;5.43;2.00;;;;;;;24.05;52.34;100388.31;5088470;28;20036;-77
2023/07/15 07:57:38;;;;;;;1.88;1.58;;;;;;;24.07;52.61;100383.09;5095015;28;20032;-77
2023/07/15 08:00:04;;;;;;;3.95;1.65;;;;;;;24.06;52.62;100367.28;5093940;28;20040;-77
2023/07/15 08:02:29;;;;;;;3.97;1.50;;;;;;;24.06;53.49;100374.97;5094137;28;20059;-77
2023/07/15 08:04:55;;;;;;;2.47;1.40;;;;;;;24.06;53.02;100384.28;5094998;28;20101;-77
2023/07/15 08:07:20;;;;;;;3.05;1.70;;;;;;;24.03;53.29;100381.34;5079310;28;20413;-77
2023/07/15 08:09:45;;;;;;;2.08;1.23;;;;;;;23.95;53.59;100388.78;5053228;28;20033;-77
2023/07/15 08:12:11;;;;;;;3.40;1.40;;;;;;;23.94;53.52;100384.28;5054280;28;20032;-77
2023/07/15 08:14:36;;;;;;;2.33;1.30;;;;;;;23.94;53.93;100393.63;5053944;28;20033;-77
2023/07/15 08:17:01;;;;;;;4.30;1.50;;;;;;;23.94;53.87;100389.97;5053098;28;20024;-77
2023/07/15 08:19:27;;;;;;;2.80;1.40;;;;;;;23.98;54.37;100385.25;5053669;28;20072;-77
2023/07/15 08:21:52;;;;;;;2.42;1.30;;;;;;;24.14;54.22;100391.00;5064781;28;20040;-77
2023/07/15 08:24:17;;;;;;;3.47;1.58;;;;;;;24.17;53.93;100393.97;5079267;28;20038;-77
2023/07/15 08:26:44;;;;;;;4.18;1.60;;;;;;;24.19;54.27;100391.59;5093751;28;20135;-77
2023/07/15 08:29:09;;;;;;;2.15;1.40;;;;;;;24.21;54.20;100396.91;5090751;28;20144;-77
2023/07/15 08:31:34;;;;;;;3.08;1.42;;;;;;;24.21;53.60;100399.75;5091291;28;20044;-77
2023/07/15 08:34:03;;;;;;;3.20;1.40;;;;;;;24.22;53.31;100395.72;5094446;28;20467;-77
2023/07/15 08:36:28;;;;;;;2.50;1.50;;;;;;;24.19;54.29;100397.25;5087773;28;20028;-77
2023/07/15 08:38:54;;;;;;;4.45;1.50;;;;;;;24.19;53.79;100396.44;5085657;28;22158;-77
2023/07/15 08:41:23;;;;;;;1.85;1.45;;;;;;;24.19;53.76;100399.28;5059721;28;20048;-77
2023/07/15 08:43:48;;;;;;;4.60;1.40;;;;;;;24.26;53.60;100399.50;5053307;28;20065;-79
2023/07/15 08:46:25;;;;;;;3.65;1.70;;;;;;;24.32;53.14;100411.41;5053710;28;20112;-77
2023/07/15 08:48:51;;;;;;;3.10;1.95;;;;;;;24.30;53.33;100419.47;5053253;28;20029;-77
2023/07/15 08:51:18;;;;;;;5.28;2.17;;;;;;;24.25;52.26;100434.72;5053056;28;20083;-76
2023/07/15 08:53:44;;;;;;;5.15;2.10;;;;;;;24.14;52.74;100425.84;5052577;28;20029;-77
2023/07/15 08:56:11;;;;;;;3.33;1.80;;;;;;;24.13;52.96;100415.72;5055420;28;20078;-77
2023/07/15 08:58:37;;;;;;;6.93;2.10;;;;;;;24.08;52.61;100432.94;5052427;28;20029;-76
2023/07/15 09:01:02;;;;;;;6.60;1.85;;;;;;;24.03;52.49;100441.69;5053360;28;20044;-77
2023/07/15 09:03:29;;;;;;;5.38;2.20;;;;;;;23.98;52.97;100437.09;5053318;28;20021;-77
2023/07/15 09:05:54;;;;;;;3.03;1.75;;;;;;;23.92;52.47;100449.81;5052055;28;20021;-77
2023/07/15 09:08:19;;;;;;;5.13;1.92;;;;;;;23.83;52.32;100446.28;5058756;28;20480;-77
2023/07/15 09:10:55;;;;;;;3.83;2.05;;;;;;;23.80;52.05;100452.66;5084887;28;20062;-77
2023/07/15 09:13:28;;;;;;;5.72;2.08;;;;;;;23.75;51.54;100450.88;5066326;28;20040;-77
2023/07/15 09:15:55;;;;;;;4.43;2.20;;;;;;;23.76;51.97;100440.38;5066075;28;20053;-77
2023/07/15 09:18:22;;;;;;;2.53;2.15;;;;;;;23.74;52.14;100439.91;5057556;28;20028;-77
2023/07/15 09:20:48;;;;;;;4.78;2.15;;;;;;;23.74;52.51;100443.56;5053761;28;20261;-77
2023/07/15 09:23:14;;;;;;;3.17;2.17;;;;;;;23.77;52.45;100442.84;5072952;28;20081;-77
2023/07/15 09:25:48;;;;;;;4.00;2.20;;;;;;;23.81;52.50;100451.47;5074924;28;20033;-76
2023/07/15 09:28:13;;;;;;;5.18;1.70;;;;;;;23.86;52.51;100445.59;5059852;28;20031;-77
2023/07/15 09:30:39;;;;;;;5.97;2.25;;;;;;;23.92;52.23;100449.00;5064603;28;20062;-78
2023/07/15 09:33:05;;;;;;;7.72;2.20;;;;;;;23.95;51.89;100445.47;5063648;28;20029;-71
2023/07/15 09:35:37;;;;;;;10.40;2.30;;;;;;;23.94;52.39;100449.50;5063284;28;20468;-76
2023/07/15 09:38:03;;;;;;;5.47;1.85;;;;;;;23.94;52.02;100461.66;5057669;28;20055;-76
2023/07/15 09:40:41;;;;;;;4.68;2.10;;;;;;;23.93;51.58;100447.81;5059381;28;20397;-75
2023/07/15 09:43:06;;;;;;;4.35;2.08;;;;;;;23.87;51.89;100454.91;5059881;28;20074;-72
2023/07/15 09:45:40;;;;;;;7.13;2.30;;;;;;;23.79;52.49;100461.53;5066061;28;20112;-71
2023/07/15 09:48:10;;;;;;;3.28;1.88;;;;;;;23.81;52.24;100465.63;5051269;28;20150;-72
2023/07/15 09:50:39;;;;;;;4.72;2.00;;;;;;;23.84;52.46;100464.13;5051975;28;20480;-72
2023/07/15 09:53:05;;;;;;;4.07;2.00;;;;;;;23.83;52.09;100488.81;5057953;28;20022;-69
2023/07/15 09:55:33;;;;;;;4.63;2.20;;;;;;;23.86;52.27;100485.28;5066302;28;20054;-73
2023/07/15 09:58:19;;;;;;;4.50;2.10;;;;;;;23.82;53.37;100489.16;5083400;28;20102;-73
2023/07/15 10:00:54;;;;;;;3.33;2.22;;;;;;;23.84;53.33;100492.47;5081381;28;20028;-74
2023/07/15 10:03:40;;;;;;;2.90;1.83;;;;;;;23.85;52.52;100496.94;5068660;28;20028;-77
2023/07/15 10:06:07;;;;;;;7.18;2.42;;;;;;;23.80;53.20;100491.50;5083679;28;20033;-70
2023/07/15 10:08:33;;;;;;;5.80;2.08;;;;;;;23.81;53.30;100481.81;5058292;28;20028;-72
2023/07/15 10:10:58;;;;;;;4.60;1.90;;;;;;;23.81;53.81;100487.47;5071415;28;20032;-74
2023/07/15 10:13:24;;;;;;;3.95;2.00;;;;;;;23.80;53.90;100475.31;5066803;28;20399;-79
2023/07/15 10:15:50;;;;;;;4.03;1.80;;;;;;;23.82;53.70;100475.00;5065715;28;20048;-79
2023/07/15 10:18:19;;;;;;;4.88;2.40;;;;;;;23.74;56.55;100474.75;5067690;28;20038;-74
2023/07/15 10:20:55;;;;;;;5.43;2.47;;;;;;;23.69;56.14;100451.44;5068217;28;20037;-71
2023/07/15 10:23:25;;;;;;;3.65;2.13;;;;;;;23.69;55.64;100457.13;5064207;28;20090;-76
2023/07/15 10:26:00;;;;;;;3.47;1.80;;;;;;;23.64;56.31;100449.66;5063757;28;20392;-76
2023/07/15 10:28:29;;;;;;;5.50;1.92;;;;;;;23.64;57.25;100452.47;5064201;28;20032;-73
2023/07/15 10:31:11;;;;;;;2.97;2.00;;;;;;;23.61;57.72;100461.66;5072257;28;20392;-75
2023/07/15 10:33:52;;;;;;;4.85;2.15;;;;;;;23.59;58.26;100451.88;5064630;28;20429;-72
2023/07/15 10:36:41;;;;;;;3.53;1.98;;;;;;;23.54;58.36;100461.44;5069660;28;20437;-73
2023/07/15 10:39:18;;;;;;;5.00;2.00;;;;;;;23.50;58.85;100457.63;5068883;28;20115;-72
2023/07/15 10:41:48;;;;;;;3.40;2.05;;;;;;;23.54;59.11;100450.13;5080309;28;20032;-74
2023/07/15 10:44:21;;;;;;;5.18;2.05;;;;;;;23.56;59.13;100453.41;5076966;28;20040;-72
2023/07/15 10:46:50;;;;;;;5.05;2.28;;;;;;;23.55;59.06;100463.09;5090883;28;20028;-73
2023/07/15 10:49:17;;;;;;;5.85;2.08;;;;;;;23.56;59.00;100463.91;5073736;28;20016;-72
2023/07/15 10:51:43;;;;;;;3.33;1.90;;;;;;;23.61;58.49;100458.00;5067543;28;20308;-72
2023/07/15 10:54:09;;;;;;;5.55;2.20;;;;;;;23.62;58.03;100452.00;5061660;28;20127;-72
2023/07/15 10:56:34;;;;;;;2.92;2.10;;;;;;;23.61;58.77;100464.50;5068246;28;20029;-74
2023/07/15 10:59:00;;;;;;;3.70;2.20;;;;;;;23.65;58.65;100464.63;5075916;28;20036;-72
2023/07/15 11:01:25;;;;;;;5.78;2.50;;;;;;;23.67;58.82;100471.66;5067695;28;20035;-76
2023/07/15 11:03:50;;;;;;;4.05;2.05;;;;;;;23.63;57.86;100462.16;5086783;28;20047;-74
2023/07/15 11:06:16;;;;;;;3.83;2.13;;;;;;;23.65;58.03;100468.28;5059735;28;20666;-67
2023/07/15 11:08:42;;;;;;;4.30;1.95;;;;;;;23.65;58.00;100456.97;5052963;28;20469;-72
2023/07/15 11:11:12;;;;;;;3.90;2.20;;;;;;;23.69;57.78;100471.28;5054114;28;20564;-77
2023/07/15 11:13:40;;;;;;;3.65;2.60;;;;;;;23.86;58.87;100465.44;5051491;28;20417;-74
2023/07/15 11:16:05;;;;;;;4.32;2.55;;;;;;;23.99;57.92;100450.06;5053175;28;20044;-77
2023/07/15 11:18:31;;;;;;;5.22;2.17;;;;;;;24.10;56.54;100463.78;5052342;28;20417;-78
2023/07/15 11:20:58;;;;;;;5.63;2.05;;;;;;;24.04;54.77;100456.69;5060028;28;20029;-80
2023/07/15 11:23:26;;;;;;;2.75;2.00;;;;;;;24.09;55.23;100451.63;5057212;28;20107;-78
2023/07/15 11:25:51;;;;;;;2.97;1.85;;;;;;;24.09;54.40;100448.78;5060178;28;20132;-77